Athens, West Virginia
Current Conditions -  °F | °C
As of 5:52 PM on Friday 31 Oct 2014 (Local Time) from KBLF Reporting Station
Light Rain Light Rain  
Wind Chill: 41°   Ceiling: 1100
Heat Index: 41°   Visibility: 7mi
Dew Point: 36°   Wind: 3mph
Humidity: 82%   Direction: 300°WNW
Pressure: 29.83"   Gusts: NA
Location:  37.42°N, 81.02°W
Report Text: KBLF 312152Z AUTO 30003KT 7SM -RA OVC011 05/02 A2983 RMK AO2 SLP101 P0003 T00500022
Loading
Personal Weather Stations






























Interactive Weather Map New forecast layout! Learn more

10-Day Weather Forecast

Advertisements
Track Severe Weather on mobile